createdAt,value
2023-05-10T00:01:49.133Z,52.42
2023-05-10T00:06:50.401Z,53.15
2023-05-10T00:11:51.674Z,53.56
2023-05-10T00:16:53.050Z,53.81
2023-05-10T00:21:54.440Z,54.84
2023-05-10T00:26:55.693Z,55.07
2023-05-10T00:31:57.386Z,55.00
2023-05-10T00:36:58.904Z,55.72
2023-05-10T00:42:01.136Z,55.81
2023-05-10T00:47:02.379Z,56.17
2023-05-10T00:52:04.077Z,54.33
2023-05-10T00:57:05.370Z,53.49
2023-05-10T01:02:06.880Z,55.36
2023-05-10T01:07:08.114Z,55.66
2023-05-10T01:12:09.426Z,56.70
2023-05-10T01:17:10.844Z,55.19
2023-05-10T01:22:12.133Z,55.31
2023-05-10T01:27:13.372Z,54.08
2023-05-10T01:32:14.687Z,53.14
2023-05-10T01:37:16.140Z,51.67
2023-05-10T01:42:17.488Z,51.50
2023-05-10T01:47:18.784Z,52.66
2023-05-10T01:52:23.158Z,52.67
2023-05-10T01:57:24.404Z,51.88
2023-05-10T02:02:25.686Z,52.52
2023-05-10T02:07:27.021Z,53.59
2023-05-10T02:12:28.264Z,53.52
2023-05-10T02:17:29.715Z,54.11
2023-05-10T02:22:31.033Z,55.01
2023-05-10T02:27:32.294Z,56.72
2023-05-10T02:32:33.517Z,56.51
2023-05-10T02:37:34.749Z,58.52
2023-05-10T02:42:36.047Z,59.66
2023-05-10T02:47:37.408Z,57.47
2023-05-10T02:52:38.683Z,57.74
2023-05-10T02:57:39.960Z,59.12
2023-05-10T03:02:41.513Z,63.15
2023-05-10T03:07:42.909Z,61.49
2023-05-10T03:12:44.174Z,65.71
2023-05-10T03:17:45.721Z,67.32
2023-05-10T03:22:47.220Z,67.17
2023-05-10T03:27:48.515Z,68.85
2023-05-10T03:32:49.822Z,70.05
2023-05-10T03:37:51.111Z,70.15
2023-05-10T03:42:52.348Z,76.17
2023-05-10T03:47:53.870Z,75.63
2023-05-10T03:52:55.199Z,71.08
2023-05-10T03:57:56.525Z,70.63
2023-05-10T04:02:57.909Z,73.41
2023-05-10T04:07:59.256Z,73.13
2023-05-10T04:13:00.575Z,71.90
2023-05-10T04:18:02.240Z,71.29
2023-05-10T04:23:04.048Z,72.04
2023-05-10T04:28:05.641Z,71.90
2023-05-10T04:33:06.964Z,72.95
2023-05-10T04:38:08.337Z,72.22
2023-05-10T04:43:09.627Z,70.37
2023-05-10T04:48:10.859Z,72.61
2023-05-10T04:53:13.167Z,72.08
2023-05-10T04:58:15.844Z,73.01
2023-05-10T05:03:17.196Z,73.36
2023-05-10T05:08:18.638Z,75.76
2023-05-10T05:13:20.070Z,74.46
2023-05-10T05:18:21.476Z,77.12
2023-05-10T05:23:25.699Z,76.63
2023-05-10T05:28:27.104Z,74.40
2023-05-10T05:33:28.562Z,79.62
2023-05-10T05:38:29.827Z,78.53
2023-05-10T05:43:31.214Z,77.36
2023-05-10T05:48:32.594Z,75.21
2023-05-10T05:53:33.850Z,74.41
2023-05-10T05:58:35.107Z,75.31
2023-05-10T06:03:36.466Z,74.88
2023-05-10T06:08:37.732Z,74.75
2023-05-10T06:13:39.171Z,75.30
2023-05-10T06:18:40.529Z,74.21
2023-05-10T06:23:41.818Z,74.44
2023-05-10T06:28:43.145Z,73.41
2023-05-10T06:33:44.485Z,74.53
2023-05-10T06:38:45.770Z,74.41
2023-05-10T06:43:47.095Z,74.86
2023-05-10T06:48:48.348Z,75.90
2023-05-10T06:53:49.710Z,76.31
2023-05-10T06:58:51.113Z,76.04
2023-05-10T07:03:52.455Z,75.06
2023-05-10T07:08:53.742Z,76.27
2023-05-10T07:13:55.063Z,76.15
2023-05-10T07:18:56.447Z,77.44
2023-05-10T07:23:57.746Z,76.13
2023-05-10T07:28:58.976Z,77.41
2023-05-10T07:34:00.254Z,78.13
2023-05-10T07:39:01.555Z,78.78
2023-05-10T07:44:02.875Z,80.42
2023-05-10T07:49:04.151Z,73.19
2023-05-10T07:54:05.480Z,75.60
2023-05-10T07:59:08.144Z,74.83
2023-05-10T08:04:10.654Z,76.26
2023-05-10T08:09:11.948Z,76.55
2023-05-10T08:14:13.216Z,77.20
2023-05-10T08:19:14.543Z,75.69
2023-05-10T08:24:15.947Z,75.13
2023-05-10T08:29:17.296Z,76.44
2023-05-10T08:34:18.544Z,73.71
2023-05-10T08:39:29.862Z,73.36
2023-05-10T08:44:31.927Z,75.62
2023-05-10T08:49:33.743Z,73.67
2023-05-10T08:54:35.280Z,76.17
2023-05-10T08:59:36.633Z,75.75
2023-05-10T09:04:38.069Z,76.10
2023-05-10T09:09:39.448Z,74.95
2023-05-10T09:14:41.238Z,76.33
2023-05-10T09:19:42.665Z,75.85
2023-05-10T09:24:46.166Z,75.69
2023-05-10T09:29:47.434Z,73.36
2023-05-10T09:34:48.812Z,71.70
2023-05-10T09:39:50.111Z,72.43
2023-05-10T09:44:51.404Z,70.43
2023-05-10T09:49:53.225Z,69.41
2023-05-10T09:54:54.838Z,70.59
2023-05-10T09:59:56.276Z,70.25
2023-05-10T10:04:57.707Z,71.43
2023-05-10T10:09:58.959Z,69.14
2023-05-10T10:15:00.211Z,68.36
2023-05-10T10:20:01.537Z,67.54
2023-05-10T10:25:02.865Z,67.15
2023-05-10T10:30:04.344Z,64.07
2023-05-10T10:35:05.579Z,61.80
2023-05-10T10:40:06.839Z,61.04
2023-05-10T10:45:10.017Z,59.00
2023-05-10T10:50:19.518Z,59.99
2023-05-10T10:55:23.250Z,62.11
2023-05-10T11:00:24.617Z,62.56
2023-05-10T11:05:26.129Z,59.10
2023-05-10T11:10:27.366Z,57.65
2023-05-10T11:15:28.648Z,56.63
2023-05-10T11:20:34.351Z,55.79
2023-05-10T11:25:35.639Z,55.96
2023-05-10T11:30:36.920Z,57.62
2023-05-10T11:35:38.188Z,58.18
2023-05-10T11:40:39.507Z,58.24
2023-05-10T11:45:41.012Z,57.20
2023-05-10T11:50:42.253Z,52.72
2023-05-10T11:55:43.467Z,53.37
2023-05-10T12:00:44.700Z,50.51
2023-05-10T12:05:46.001Z,52.08
2023-05-10T12:10:47.331Z,51.92
2023-05-10T12:15:48.569Z,52.74
2023-05-10T12:20:49.850Z,52.35
2023-05-10T12:25:52.416Z,51.08
2023-05-10T12:30:53.854Z,55.19
2023-05-10T12:35:55.173Z,54.96
2023-05-10T12:40:56.447Z,57.10
2023-05-10T12:45:58.006Z,58.12
2023-05-10T12:50:59.276Z,65.74
2023-05-10T12:56:00.646Z,69.64
2023-05-10T13:01:01.915Z,71.43
2023-05-10T13:06:03.274Z,72.92
2023-05-10T13:11:04.601Z,69.78
2023-05-10T13:16:05.958Z,69.85
2023-05-10T13:21:08.465Z,71.94
2023-05-10T13:26:09.687Z,70.06
2023-05-10T13:31:11.350Z,70.05
2023-05-10T13:36:12.600Z,72.54
2023-05-10T13:41:13.853Z,74.55
2023-05-10T13:46:15.127Z,70.57
2023-05-10T13:51:16.421Z,70.51
2023-05-10T13:56:17.689Z,71.25
2023-05-10T14:01:18.963Z,70.96
2023-05-10T14:06:20.285Z,71.25
2023-05-10T14:11:23.930Z,73.39
2023-05-10T14:16:26.180Z,75.61
2023-05-10T14:21:27.600Z,73.79
2023-05-10T14:26:28.888Z,73.06
2023-05-10T14:31:31.464Z,70.79
2023-05-10T14:36:33.150Z,73.80
2023-05-10T14:41:34.457Z,71.86
2023-05-10T14:46:36.078Z,71.37
2023-05-10T14:51:37.881Z,72.85
2023-05-10T14:56:39.332Z,74.43
2023-05-10T15:01:42.812Z,74.02
2023-05-10T15:06:44.732Z,76.99
2023-05-10T15:11:46.046Z,74.48
2023-05-10T15:16:47.803Z,75.69
2023-05-10T15:21:49.069Z,75.37
2023-05-10T15:26:50.432Z,76.34
2023-05-10T15:31:52.350Z,72.53
2023-05-10T15:36:53.813Z,75.50
2023-05-10T15:41:55.036Z,76.60
2023-05-10T15:46:56.832Z,78.39
2023-05-10T15:51:58.151Z,78.84
2023-05-10T15:57:00.165Z,77.85
2023-05-10T16:02:01.469Z,77.05
2023-05-10T16:07:02.736Z,77.26
2023-05-10T16:12:04.423Z,77.36
2023-05-10T16:17:10.342Z,78.55
2023-05-10T16:22:11.622Z,80.01
2023-05-10T16:27:13.322Z,82.88
2023-05-10T16:32:14.583Z,81.50
2023-05-10T16:37:15.993Z,80.36
2023-05-10T16:42:17.552Z,78.51
2023-05-10T16:47:18.830Z,78.06
2023-05-10T16:52:20.084Z,80.99
2023-05-10T16:57:21.342Z,81.94
2023-05-10T17:02:22.766Z,81.50
2023-05-10T17:07:26.183Z,82.20
2023-05-10T17:12:27.638Z,82.55
2023-05-10T17:17:28.959Z,84.29
2023-05-10T17:22:30.418Z,83.72
2023-05-10T17:27:31.714Z,83.86
2023-05-10T17:32:32.997Z,83.10
2023-05-10T17:37:34.291Z,82.51
2023-05-10T17:42:35.504Z,81.34
2023-05-10T17:47:36.814Z,81.00
2023-05-10T17:52:38.068Z,81.29
2023-05-10T17:57:39.330Z,80.02
2023-05-10T18:02:40.600Z,80.53
2023-05-10T18:07:41.971Z,80.04
2023-05-10T18:12:43.720Z,78.76
2023-05-10T18:17:45.207Z,80.94
2023-05-10T18:22:46.553Z,82.39
2023-05-10T18:27:48.296Z,85.78
2023-05-10T18:32:49.657Z,88.87
2023-05-10T18:37:51.026Z,87.59
2023-05-10T18:42:52.243Z,86.66
2023-05-10T18:47:53.563Z,88.16
2023-05-10T18:52:56.627Z,87.65
2023-05-10T18:57:57.881Z,85.15
2023-05-10T19:02:59.186Z,86.44
2023-05-10T19:08:00.497Z,85.20
2023-05-10T19:13:01.717Z,83.52
2023-05-10T19:18:03.049Z,82.42
2023-05-10T19:28:10.253Z,84.23
2023-05-10T19:33:12.634Z,83.12
2023-05-10T19:38:14.041Z,82.27
2023-05-10T19:43:15.389Z,82.46
2023-05-10T19:48:16.713Z,82.18
2023-05-10T19:53:18.054Z,83.71
2023-05-10T19:58:19.667Z,85.16
2023-05-10T20:03:21.029Z,83.05
2023-05-10T20:08:22.459Z,81.22
2023-05-10T20:13:23.974Z,82.15
2023-05-10T20:18:25.327Z,81.91
2023-05-10T20:23:26.739Z,81.44
2023-05-10T20:28:28.911Z,82.37
2023-05-10T20:33:30.173Z,82.83
2023-05-10T20:38:31.402Z,81.80
2023-05-10T20:43:32.756Z,82.31
2023-05-10T20:48:34.264Z,83.84
2023-05-10T20:53:35.547Z,84.72
2023-05-10T20:58:36.841Z,86.54
2023-05-10T21:03:38.207Z,86.44
2023-05-10T21:08:39.432Z,85.34
2023-05-10T21:13:40.698Z,84.91
2023-05-10T21:18:41.960Z,83.10
2023-05-10T21:23:43.215Z,81.43
2023-05-10T21:28:44.569Z,82.24
2023-05-10T21:33:47.090Z,83.02
2023-05-10T21:38:50.353Z,84.64
2023-05-10T21:43:51.652Z,84.77
2023-05-10T21:48:52.901Z,86.31
2023-05-10T21:53:54.298Z,86.84
2023-05-10T21:58:55.649Z,85.97
2023-05-10T22:03:56.945Z,85.13
2023-05-10T22:08:58.212Z,82.84
2023-05-10T22:13:59.580Z,82.45
2023-05-10T22:19:01.163Z,81.15
2023-05-10T22:24:02.522Z,80.51
2023-05-10T22:29:03.971Z,79.94
2023-05-10T22:34:05.794Z,79.19
2023-05-10T22:39:07.045Z,79.20
2023-05-10T22:44:08.665Z,79.92
2023-05-10T22:49:10.098Z,81.69
2023-05-10T22:54:11.330Z,82.81
2023-05-10T22:59:12.618Z,82.87
2023-05-10T23:04:13.878Z,82.65
2023-05-10T23:09:16.456Z,81.44
2023-05-10T23:14:18.012Z,78.89
2023-05-10T23:19:19.295Z,79.11
2023-05-10T23:24:20.639Z,80.25
2023-05-10T23:29:23.804Z,79.56
2023-05-10T23:34:25.040Z,80.18
2023-05-10T23:39:26.297Z,80.10
2023-05-10T23:44:27.589Z,80.80
2023-05-10T23:49:29.420Z,80.26
2023-05-10T23:54:30.671Z,79.97
2023-05-10T23:59:31.889Z,81.52
